Time;durP1;ratioP1;P1;durP2;ratioP2;P2;SDS_P1;SDS_P2;PMS_P1;PMS_P2;Temp;Humidity;BMP_temperature;BMP_pressure;BME280_temperature;BME280_humidity;BME280_pressure;Samples;Min_cycle;Max_cycle;Signal;HPM_P1;HPM_P2
2022/02/09 00:04:11;;;;;;;2.05;0.60;;;9.50;99.90;;;;;;6128559;23;20010;-92
2022/02/09 00:09:10;;;;;;;4.13;1.17;;;9.40;99.90;;;;;;6122362;23;20057;-92
2022/02/09 00:33:08;;;;;;;2.05;0.63;;;9.40;99.90;;;;;;6134663;23;20010;-92
2022/02/09 01:56:09;;;;;;;8.32;0.70;;;9.40;99.90;;;;;;6247523;23;20011;-92
2022/02/09 01:58:34;;;;;;;2.00;0.50;;;9.40;99.90;;;;;;6219942;23;20016;-91
2022/02/09 02:01:00;;;;;;;5.45;0.73;;;9.40;99.90;;;;;;6219095;23;20008;-90
2022/02/09 02:03:27;;;;;;;1.95;0.70;;;9.40;99.90;;;;;;6219311;23;20500;-91
2022/02/09 02:05:55;;;;;;;1.50;1.05;;;9.40;99.90;;;;;;6194585;23;20093;-91
2022/02/09 02:08:22;;;;;;;3.70;0.55;;;9.40;99.90;;;;;;6219429;23;20091;-92
2022/02/09 02:18:32;;;;;;;3.63;0.60;;;9.40;99.90;;;;;;6256792;23;20058;-92
2022/02/09 02:28:54;;;;;;;6.95;1.63;;;9.50;99.90;;;;;;6256762;23;20447;-91
2022/02/09 02:39:43;;;;;;;1.58;0.60;;;9.50;99.90;;;;;;6256149;23;20451;-92
2022/02/09 03:09:13;;;;;;;1.77;0.50;;;9.40;99.90;;;;;;6245280;23;20099;-93
2022/02/09 03:14:15;;;;;;;7.07;0.70;;;9.40;99.90;;;;;;6245592;23;20096;-90
2022/02/09 03:16:48;;;;;;;2.58;0.45;;;9.40;99.90;;;;;;6218505;23;20031;-92
2022/02/09 03:24:14;;;;;;;1.10;0.30;;;9.30;99.90;;;;;;6245668;23;20091;-92
2022/02/09 03:49:02;;;;;;;4.80;0.70;;;9.20;99.90;;;;;;6245444;23;20046;-94
2022/02/09 03:56:55;;;;;;;2.97;0.70;;;9.20;99.90;;;;;;6245469;23;20030;-94
2022/02/09 03:59:22;;;;;;;1.00;0.60;;;9.20;99.90;;;;;;6219196;23;20114;-93
2022/02/09 04:01:47;;;;;;;1.88;0.80;;;9.20;99.90;;;;;;6218440;23;20019;-94
2022/02/09 04:04:13;;;;;;;1.50;0.90;;;9.20;99.90;;;;;;6218515;23;20427;-94
2022/02/09 04:06:39;;;;;;;3.22;0.82;;;9.20;99.90;;;;;;6218088;23;20039;-93
2022/02/09 04:09:11;;;;;;;3.15;0.57;;;9.20;99.90;;;;;;6218722;23;20004;-94
2022/02/09 04:19:08;;;;;;;1.02;0.40;;;9.20;99.90;;;;;;6245363;23;20018;-95
2022/02/09 04:51:18;;;;;;;0.50;0.30;;;8.00;99.90;;;;;;6130629;23;20323;-93
2022/02/09 04:56:53;;;;;;;0.77;0.30;;;7.90;99.90;;;;;;6141501;23;20045;-94
2022/02/09 05:26:37;;;;;;;1.20;0.68;;;7.70;99.90;;;;;;6265683;23;20023;-96
2022/02/09 05:29:03;;;;;;;0.88;0.80;;;7.70;99.90;;;;;;6233205;23;20004;-96
2022/02/09 05:31:28;;;;;;;1.70;1.05;;;7.70;99.90;;;;;;6232216;23;20048;-95
2022/02/09 05:33:54;;;;;;;1.13;0.80;;;7.70;99.90;;;;;;6232927;23;20095;-95
2022/02/09 05:36:21;;;;;;;1.40;0.70;;;7.70;99.90;;;;;;6238644;23;20003;-95
2022/02/09 05:39:15;;;;;;;1.48;0.70;;;7.60;99.90;;;;;;6244507;23;19992;-96
2022/02/09 05:41:44;;;;;;;3.50;0.70;;;7.60;99.90;;;;;;6240020;23;20019;-95
2022/02/09 05:44:12;;;;;;;1.90;1.20;;;7.60;99.90;;;;;;6214149;23;20020;-94
2022/02/09 05:52:02;;;;;;;3.60;1.40;;;7.60;99.90;;;;;;6143220;23;20010;-96
2022/02/09 05:57:32;;;;;;;3.08;1.23;;;7.60;99.90;;;;;;6145921;23;20142;-96
2022/02/09 05:59:58;;;;;;;5.07;1.55;;;7.60;99.90;;;;;;6145061;23;20005;-95
2022/02/09 06:02:26;;;;;;;1.88;1.15;;;7.60;99.90;;;;;;6117504;23;20025;-95
2022/02/09 06:04:51;;;;;;;4.28;1.33;;;7.60;99.90;;;;;;6115593;23;20093;-95
2022/02/09 06:07:20;;;;;;;1.88;1.15;;;7.60;99.90;;;;;;6145831;23;20030;-96
2022/02/09 06:09:48;;;;;;;3.50;1.40;;;7.60;99.90;;;;;;6140164;23;20006;-95
2022/02/09 06:12:27;;;;;;;1.17;1.08;;;7.60;99.90;;;;;;6120249;23;20074;-96
2022/02/09 06:20:14;;;;;;;2.28;1.30;;;7.60;99.90;;;;;;6132365;23;20020;-94
2022/02/09 06:22:40;;;;;;;3.78;1.55;;;7.60;99.90;;;;;;6105184;23;20499;-95
2022/02/09 06:25:06;;;;;;;3.15;1.30;;;7.60;99.90;;;;;;6102388;23;20006;-95
2022/02/09 06:27:31;;;;;;;2.88;1.15;;;7.60;99.90;;;;;;6220328;23;20062;-95
2022/02/09 06:29:57;;;;;;;2.67;1.33;;;7.60;99.90;;;;;;6231116;23;20024;-93
2022/02/09 06:32:24;;;;;;;1.60;1.17;;;7.60;99.90;;;;;;6221972;23;20091;-95
2022/02/09 06:34:50;;;;;;;2.17;1.55;;;7.50;99.90;;;;;;6221132;23;20004;-94
2022/02/09 06:39:45;;;;;;;3.38;1.20;;;7.50;99.90;;;;;;6249105;23;20015;-94
2022/02/09 06:42:11;;;;;;;2.10;1.10;;;7.50;99.90;;;;;;6220410;23;20016;-92
2022/02/09 06:44:37;;;;;;;4.70;1.10;;;7.50;99.90;;;;;;6220088;23;20000;-95
2022/02/09 06:47:03;;;;;;;2.63;1.40;;;7.50;99.90;;;;;;6219832;23;20218;-95
2022/02/09 06:49:31;;;;;;;2.22;1.20;;;7.50;99.90;;;;;;6220226;23;20086;-94
2022/02/09 06:51:56;;;;;;;2.45;1.10;;;7.40;99.90;;;;;;6221908;23;20011;-94
2022/02/09 06:54:28;;;;;;;5.20;0.85;;;7.40;99.90;;;;;;6222068;23;20026;-93
2022/02/09 07:01:46;;;;;;;4.72;1.15;;;7.40;99.90;;;;;;6260099;23;20023;-94
2022/02/09 07:04:11;;;;;;;3.60;1.20;;;7.40;99.90;;;;;;6230402;23;20063;-94
2022/02/09 07:06:40;;;;;;;1.50;1.00;;;7.40;99.90;;;;;;6227012;23;20008;-94
2022/02/09 07:09:06;;;;;;;3.33;1.23;;;7.50;99.90;;;;;;6229267;23;20008;-94
2022/02/09 07:11:32;;;;;;;4.03;1.27;;;7.50;99.90;;;;;;6225115;23;20454;-93
2022/02/09 07:13:58;;;;;;;4.95;1.88;;;7.50;99.90;;;;;;6248447;23;20008;-94
2022/02/09 07:16:24;;;;;;;21.25;3.03;;;7.50;99.90;;;;;;6221932;23;20031;-94
2022/02/09 07:18:51;;;;;;;3.53;1.00;;;7.40;99.90;;;;;;6221429;23;20008;-93
2022/02/09 07:21:24;;;;;;;2.40;1.60;;;7.40;99.90;;;;;;6218687;23;20020;-94
2022/02/09 07:23:52;;;;;;;3.17;1.25;;;7.50;99.90;;;;;;6218482;23;20011;-93
2022/02/09 07:26:21;;;;;;;5.40;1.77;;;7.50;99.90;;;;;;6219938;23;20004;-94
2022/02/09 07:28:47;;;;;;;3.13;1.60;;;7.50;99.90;;;;;;6219485;23;20103;-93
2022/02/09 07:31:14;;;;;;;2.67;1.10;;;7.50;99.90;;;;;;6220191;23;20023;-93
2022/02/09 07:33:44;;;;;;;6.13;1.50;;;7.50;99.90;;;;;;6220262;23;20015;-94
2022/02/09 07:36:11;;;;;;;7.35;1.80;;;7.50;99.90;;;;;;6219548;23;20011;-92
2022/02/09 07:38:37;;;;;;;6.43;1.90;;;7.50;99.90;;;;;;6219270;23;20012;-93
2022/02/09 07:41:03;;;;;;;8.05;1.85;;;7.50;99.90;;;;;;6218632;23;20070;-94
2022/02/09 07:54:03;;;;;;;6.45;1.77;;;7.40;99.90;;;;;;6246559;23;20038;-94
2022/02/09 07:56:33;;;;;;;4.53;1.85;;;7.40;99.90;;;;;;6220888;23;20012;-92
2022/02/09 07:59:00;;;;;;;2.92;1.20;;;7.40;99.90;;;;;;6219774;23;20004;-94
2022/02/09 08:01:27;;;;;;;3.75;1.17;;;7.40;99.90;;;;;;6217813;23;20325;-93
2022/02/09 08:03:53;;;;;;;8.32;1.65;;;7.40;99.90;;;;;;6220599;23;20008;-94
2022/02/09 08:06:24;;;;;;;4.68;1.35;;;7.40;99.90;;;;;;6222370;23;20090;-93
2022/02/09 08:08:51;;;;;;;4.15;1.40;;;7.40;99.90;;;;;;6222138;23;20012;-95
2022/02/09 08:11:26;;;;;;;4.10;1.30;;;7.40;99.90;;;;;;6221860;23;20014;-94
2022/02/09 08:30:18;;;;;;;7.13;1.05;;;7.50;99.90;;;;;;6250257;23;20015;-94
2022/02/09 08:32:56;;;;;;;3.80;0.70;;;7.60;99.90;;;;;;6224894;23;20036;-95
2022/02/09 08:35:22;;;;;;;3.53;1.27;;;7.60;99.90;;;;;;6221301;23;20007;-95
2022/02/09 08:37:50;;;;;;;9.02;1.00;;;7.60;99.90;;;;;;6227602;23;20095;-95
2022/02/09 08:40:18;;;;;;;4.45;0.70;;;7.60;99.90;;;;;;6224107;23;20035;-94
2022/02/09 08:42:45;;;;;;;2.67;1.00;;;7.60;99.90;;;;;;6222325;23;20044;-92
2022/02/09 08:45:11;;;;;;;6.03;0.77;;;7.60;99.90;;;;;;6223609;23;20000;-95
2022/02/09 08:47:37;;;;;;;3.38;0.93;;;7.60;99.90;;;;;;6225435;23;20003;-94
2022/02/09 08:50:04;;;;;;;2.28;0.80;;;7.60;99.90;;;;;;6227819;23;20007;-96
2022/02/09 08:52:30;;;;;;;1.85;0.70;;;7.60;99.90;;;;;;6229163;23;20186;-95
2022/02/09 08:54:57;;;;;;;2.38;0.90;;;7.60;99.90;;;;;;6223703;23;20008;-94
2022/02/09 08:57:24;;;;;;;2.70;0.82;;;7.60;99.90;;;;;;6225150;23;20008;-95
2022/02/09 08:59:51;;;;;;;3.50;1.33;;;7.50;99.90;;;;;;6230053;23;20038;-94
2022/02/09 09:02:20;;;;;;;3.92;0.90;;;7.50;99.90;;;;;;6239964;23;20035;-95
2022/02/09 09:04:55;;;;;;;3.08;0.80;;;7.50;99.90;;;;;;6235160;23;20004;-95
2022/02/09 09:07:27;;;;;;;3.60;1.40;;;7.50;99.90;;;;;;6220645;23;20008;-92
2022/02/09 10:02:05;;;;;;;5.60;0.88;;;7.40;99.90;;;;;;6131669;23;20122;-96
2022/02/09 10:05:00;;;;;;;8.47;1.37;;;7.40;99.90;;;;;;6190373;23;20015;-95
2022/02/09 10:34:23;;;;;;;7.85;1.10;;;8.60;99.90;;;;;;6165513;23;20014;-94
2022/02/09 10:37:02;;;;;;;6.45;1.40;;;8.70;99.90;;;;;;6174608;23;20112;-96
2022/02/09 10:39:44;;;;;;;4.22;1.20;;;8.80;99.90;;;;;;6160981;23;20041;-93
2022/02/09 10:44:47;;;;;;;10.27;1.20;;;8.90;99.90;;;;;;6154947;23;20315;-93
2022/02/09 10:47:34;;;;;;;7.75;1.10;;;9.00;99.90;;;;;;6157981;23;20121;-93
2022/02/09 10:50:25;;;;;;;9.75;1.15;;;9.00;99.90;;;;;;6159172;23;20021;-95
2022/02/09 10:52:55;;;;;;;12.93;1.27;;;9.00;99.90;;;;;;6173354;23;19997;-95
2022/02/09 10:55:28;;;;;;;7.50;1.10;;;9.10;99.90;;;;;;6169902;23;20002;-96
2022/02/09 10:57:54;;;;;;;7.03;2.33;;;9.30;99.90;;;;;;6163629;23;20005;-95
2022/02/09 11:00:24;;;;;;;8.20;1.13;;;9.40;99.90;;;;;;6231774;23;20012;-95
2022/02/09 11:02:50;;;;;;;4.40;1.63;;;9.60;99.90;;;;;;6232827;23;20020;-96
2022/02/09 11:05:22;;;;;;;10.00;1.48;;;9.70;99.90;;;;;;6227920;23;20008;-95
2022/02/09 11:07:48;;;;;;;7.53;1.33;;;9.70;99.90;;;;;;6224056;23;20004;-94
2022/02/09 11:10:15;;;;;;;6.32;1.35;;;9.70;99.90;;;;;;6223193;23;20094;-95
2022/02/09 11:12:45;;;;;;;7.60;1.25;;;9.70;99.90;;;;;;6227008;23;20004;-96
2022/02/09 11:15:19;;;;;;;4.75;1.42;;;9.80;99.90;;;;;;6223544;23;20061;-94
2022/02/09 11:17:47;;;;;;;7.88;1.27;;;9.90;99.90;;;;;;6224969;23;20004;-95
2022/02/09 11:20:19;;;;;;;8.40;2.10;;;10.00;99.90;;;;;;6225243;23;20032;-94
2022/02/09 11:22:46;;;;;;;5.50;1.10;;;10.10;99.90;;;;;;6223566;23;20565;-96
2022/02/09 11:25:19;;;;;;;3.75;0.98;;;10.10;99.90;;;;;;6227730;23;20004;-94
2022/02/09 11:28:21;;;;;;;4.63;1.33;;;10.10;99.90;;;;;;6256167;23;20005;-94
2022/02/09 11:31:06;;;;;;;9.93;1.33;;;10.00;99.90;;;;;;6226307;23;20011;-93
2022/02/09 11:33:57;;;;;;;11.93;1.60;;;9.80;99.90;;;;;;6222467;23;20009;-93
2022/02/09 11:36:39;;;;;;;8.45;1.23;;;9.70;99.90;;;;;;6224053;23;20015;-95
2022/02/09 11:39:14;;;;;;;8.65;1.17;;;9.60;99.90;;;;;;6224915;23;20004;-94
2022/02/09 11:41:56;;;;;;;6.88;2.08;;;9.60;99.90;;;;;;6223051;23;20008;-94
2022/02/09 11:44:59;;;;;;;7.03;0.60;;;9.60;99.90;;;;;;6224016;23;20047;-95
2022/02/09 11:50:49;;;;;;;9.50;1.10;;;9.50;99.90;;;;;;6273426;23;20000;-93
2022/02/09 11:59:10;;;;;;;10.35;1.20;;;9.50;99.90;;;;;;6256917;23;20011;-96
2022/02/09 12:10:23;;;;;;;7.32;1.35;;;9.80;99.90;;;;;;6259053;23;20510;-96
2022/02/09 12:12:59;;;;;;;7.65;1.25;;;9.80;99.90;;;;;;6227485;23;20023;-95
2022/02/09 12:16:09;;;;;;;4.50;1.17;;;9.70;99.90;;;;;;6224217;23;20004;-95
2022/02/09 12:18:38;;;;;;;3.35;1.10;;;9.70;99.90;;;;;;6223139;23;20431;-95
2022/02/09 12:21:16;;;;;;;2.63;0.73;;;9.70;99.90;;;;;;6234134;23;20020;-95
2022/02/09 12:23:45;;;;;;;7.60;1.08;;;9.70;99.90;;;;;;6229845;23;20015;-95
2022/02/09 12:26:13;;;;;;;11.85;1.20;;;9.60;99.90;;;;;;6221923;23;20000;-95
2022/02/09 12:28:41;;;;;;;9.77;1.38;;;9.60;99.90;;;;;;6223523;23;20004;-94
2022/02/09 12:31:16;;;;;;;7.30;1.27;;;9.60;99.90;;;;;;6222835;23;20439;-96
2022/02/09 12:33:48;;;;;;;8.35;1.85;;;9.60;99.80;;;;;;6224429;23;20034;-95
2022/02/09 12:36:21;;;;;;;11.45;1.40;;;9.70;98.90;;;;;;6224149;23;20004;-95
2022/02/09 12:38:55;;;;;;;12.82;1.55;;;9.80;97.90;;;;;;6226309;23;20031;-95
2022/02/09 12:41:23;;;;;;;6.15;1.17;;;9.90;97.20;;;;;;6228934;23;20015;-95
2022/02/09 12:43:51;;;;;;;9.07;1.30;;;10.00;96.40;;;;;;6223198;23;20008;-95
2022/02/09 12:46:19;;;;;;;16.67;1.92;;;10.20;95.80;;;;;;6224980;23;20050;-95
2022/02/09 12:48:45;;;;;;;9.85;2.50;;;10.20;95.10;;;;;;6225515;23;20039;-94
2022/02/09 12:51:24;;;;;;;4.75;1.30;;;10.30;95.10;;;;;;6224677;23;20012;-96
2022/02/09 12:53:50;;;;;;;6.78;1.80;;;10.40;94.90;;;;;;6223337;23;20000;-94
2022/02/09 12:56:25;;;;;;;11.88;2.17;;;10.50;94.90;;;;;;6225473;23;20023;-95
2022/02/09 12:59:17;;;;;;;10.80;2.53;;;10.50;94.70;;;;;;6223549;23;20457;-94
2022/02/09 13:01:48;;;;;;;7.07;1.95;;;10.80;95.00;;;;;;6221383;23;20016;-94
2022/02/09 13:04:37;;;;;;;7.80;1.85;;;11.10;95.30;;;;;;6222586;23;20008;-95
2022/02/09 13:07:18;;;;;;;10.20;3.05;;;11.30;93.90;;;;;;6224040;23;20004;-95
2022/02/09 13:09:53;;;;;;;11.27;2.10;;;11.50;93.80;;;;;;6223037;23;20019;-94
2022/02/09 13:12:26;;;;;;;9.82;1.55;;;11.70;93.30;;;;;;6223176;23;19996;-96
2022/02/09 13:14:57;;;;;;;8.90;1.80;;;12.30;93.00;;;;;;6222890;23;20000;-94
2022/02/09 13:17:52;;;;;;;10.73;1.75;;;12.60;91.50;;;;;;6223685;23;20008;-94
2022/02/09 13:21:02;;;;;;;14.45;1.75;;;12.60;90.80;;;;;;6224939;23;20016;-93
2022/02/09 13:24:08;;;;;;;10.25;2.50;;;12.40;89.90;;;;;;6251939;22;20076;-94
2022/02/09 13:51:48;;;;;;;10.75;2.17;;;12.20;90.20;;;;;;6223504;23;20019;-94
2022/02/09 14:04:37;;;;;;;9.50;1.60;;;11.70;86.10;;;;;;6244981;23;20063;-94
2022/02/09 14:56:30;;;;;;;6.32;1.20;;;13.80;70.40;;;;;;6285317;22;20142;-94
2022/02/09 14:59:01;;;;;;;4.90;1.50;;;13.90;70.80;;;;;;6281884;22;20022;-95
2022/02/09 15:01:38;;;;;;;;;;;14.30;70.50;;;;;;6285328;22;20059;-96
2022/02/09 15:04:21;;;;;;;5.13;1.30;;;14.50;68.70;;;;;;6282351;22;19909;-95
2022/02/09 15:07:05;;;;;;;10.88;1.85;;;14.40;67.50;;;;;;6281969;22;20106;-96
2022/02/09 15:09:43;;;;;;;7.00;1.48;;;14.50;68.10;;;;;;6288158;22;20003;-96
2022/02/09 15:12:23;;;;;;;9.43;1.60;;;14.60;68.00;;;;;;6292121;22;20003;-95
2022/02/09 15:17:36;;;;;;;7.68;1.65;;;14.60;67.20;;;;;;6314536;22;20007;-95
2022/02/09 15:20:49;;;;;;;12.70;2.22;;;14.70;67.30;;;;;;6282510;22;20330;-96
2022/02/09 15:22:53;;;;;;;4.95;1.45;;;14.80;67.60;;;;;;6293838;22;20011;-95
2022/02/09 15:25:22;;;;;;;9.45;1.60;;;14.90;67.70;;;;;;6284524;22;20381;-95
2022/02/09 15:27:52;;;;;;;6.68;1.75;;;14.80;67.30;;;;;;6282174;22;20019;-95
2022/02/09 15:30:20;;;;;;;11.93;2.42;;;14.40;67.70;;;;;;6282275;22;20030;-96
2022/02/09 15:32:51;;;;;;;6.65;1.98;;;13.90;68.60;;;;;;6281715;22;20063;-94
2022/02/09 15:35:32;;;;;;;10.57;1.98;;;13.40;69.70;;;;;;6281359;22;20014;-94
2022/02/09 15:38:08;;;;;;;;;;;12.90;70.90;;;;;;6280995;22;20094;-95
2022/02/09 15:40:38;;;;;;;10.48;2.08;;;12.30;72.30;;;;;;6281274;22;20306;-94
2022/02/09 15:59:17;;;;;;;12.52;1.83;;;9.80;77.90;;;;;;6306325;22;20026;-95
2022/02/09 16:23:49;;;;;;;10.30;1.55;;;8.90;81.10;;;;;;6308756;22;20353;-93
2022/02/09 16:44:55;;;;;;;8.45;1.75;;;8.40;84.10;;;;;;6308111;22;20014;-92
2022/02/09 16:50:04;;;;;;;;;;;8.30;84.70;;;;;;6318746;22;20003;-93
2022/02/09 17:19:41;;;;;;;5.97;1.90;;;7.60;89.60;;;;;;6213171;23;20491;-93
2022/02/09 17:22:08;;;;;;;7.35;1.70;;;7.60;90.00;;;;;;6187645;23;20012;-95
2022/02/09 17:24:34;;;;;;;11.35;1.85;;;7.60;90.10;;;;;;6187439;23;20019;-94
2022/02/09 17:27:01;;;;;;;16.88;2.03;;;7.60;90.30;;;;;;6189622;23;20378;-94
2022/02/09 17:29:42;;;;;;;16.55;1.98;;;7.60;90.50;;;;;;6188321;23;20005;-93
2022/02/09 17:32:16;;;;;;;11.40;2.42;;;7.60;90.70;;;;;;6190827;23;20009;-92
2022/02/09 17:35:09;;;;;;;13.40;1.75;;;7.60;90.80;;;;;;6193769;23;20005;-93
2022/02/09 17:54:10;;;;;;;8.65;2.33;;;7.60;92.20;;;;;;6310233;22;20006;-93
2022/02/09 17:56:47;;;;;;;9.52;1.52;;;7.60;92.40;;;;;;6291796;22;20003;-95
2022/02/09 17:59:15;;;;;;;11.43;2.55;;;7.70;92.70;;;;;;6284346;22;20003;-94
2022/02/09 18:01:40;;;;;;;7.93;1.63;;;7.80;93.00;;;;;;6282598;22;20007;-94
2022/02/09 18:04:09;;;;;;;12.13;2.17;;;7.80;93.30;;;;;;6305692;22;20018;-94
2022/02/09 18:06:35;;;;;;;7.85;1.75;;;7.90;93.50;;;;;;6279232;22;20010;-94
2022/02/09 18:09:14;;;;;;;17.23;2.17;;;8.00;93.40;;;;;;6280418;22;20011;-93
2022/02/09 18:11:51;;;;;;;9.88;2.40;;;8.00;93.20;;;;;;6279273;22;20053;-93
2022/02/09 18:14:49;;;;;;;10.27;1.55;;;8.00;93.40;;;;;;6278736;22;20237;-92
2022/02/09 18:25:51;;;;;;;11.65;1.88;;;8.40;93.80;;;;;;6306649;22;20068;-93
2022/02/09 18:44:25;;;;;;;19.42;4.72;;;7.90;93.60;;;;;;6308095;22;20066;-92
2022/02/09 19:05:52;;;;;;;13.75;5.50;;;7.60;94.70;;;;;;6318373;22;19999;-93
2022/02/09 19:08:37;;;;;;;23.30;5.63;;;7.60;94.80;;;;;;6280648;22;20037;-93
2022/02/09 19:19:21;;;;;;;11.00;3.28;;;7.50;95.30;;;;;;6286322;22;20015;-92
2022/02/09 19:27:42;;;;;;;12.30;2.75;;;7.40;95.70;;;;;;6308242;22;20014;-91
2022/02/09 19:30:14;;;;;;;11.95;2.40;;;7.40;95.80;;;;;;6307316;22;20439;-90
2022/02/09 19:41:11;;;;;;;10.45;2.45;;;7.30;96.30;;;;;;6307325;22;20064;-90
2022/02/09 19:49:13;;;;;;;9.25;2.15;;;7.10;96.60;;;;;;6316293;22;20010;-90
2022/02/09 19:56:55;;;;;;;18.45;4.72;;;7.00;97.00;;;;;;6308195;22;20027;-91
2022/02/09 19:59:22;;;;;;;13.10;4.07;;;7.00;97.10;;;;;;6281109;22;20061;-90
2022/02/09 20:01:48;;;;;;;17.08;3.85;;;7.00;97.30;;;;;;6279243;22;20011;-93
2022/02/09 20:04:15;;;;;;;14.57;3.67;;;6.90;97.40;;;;;;6279878;22;20468;-90
2022/02/09 20:06:45;;;;;;;12.43;3.00;;;6.90;97.60;;;;;;6280904;22;19996;-91
2022/02/09 20:09:11;;;;;;;26.67;3.50;;;6.80;97.70;;;;;;6281874;22;20422;-90
2022/02/09 20:11:41;;;;;;;18.02;2.33;;;6.80;97.90;;;;;;6282003;22;20473;-92
2022/02/09 20:14:07;;;;;;;14.40;2.50;;;6.80;98.10;;;;;;6282012;22;20374;-90
2022/02/09 20:16:33;;;;;;;16.02;2.50;;;6.80;98.30;;;;;;6281498;22;20086;-90
2022/02/09 20:18:59;;;;;;;8.60;1.98;;;6.70;98.50;;;;;;6284146;22;20014;-90
2022/02/09 20:21:27;;;;;;;7.50;2.53;;;6.70;98.60;;;;;;6282136;22;20007;-91
2022/02/09 20:23:53;;;;;;;12.02;2.28;;;6.70;98.70;;;;;;6281733;22;20014;-90
2022/02/09 20:26:20;;;;;;;8.50;2.05;;;6.70;98.80;;;;;;6282181;22;20003;-90
2022/02/09 20:28:55;;;;;;;7.93;2.20;;;6.70;98.90;;;;;;6280321;22;20391;-90
2022/02/09 20:31:26;;;;;;;13.25;3.35;;;6.70;99.10;;;;;;6279507;22;20007;-91
2022/02/09 20:33:58;;;;;;;12.65;2.38;;;6.70;99.30;;;;;;6279454;22;20498;-90
2022/02/09 20:36:24;;;;;;;28.30;5.28;;;6.70;99.40;;;;;;6280975;22;20410;-90
2022/02/09 20:38:56;;;;;;;12.05;2.30;;;6.70;99.60;;;;;;6281765;22;20007;-90
2022/02/09 20:41:22;;;;;;;10.70;2.50;;;6.70;99.70;;;;;;6281845;22;19999;-90
2022/02/09 20:46:25;;;;;;;9.73;2.03;;;6.70;99.90;;;;;;6317062;22;20023;-90
2022/02/09 20:48:51;;;;;;;13.35;2.00;;;6.70;99.90;;;;;;6280632;22;20069;-88
2022/02/09 20:51:16;;;;;;;7.93;1.98;;;6.70;99.90;;;;;;6279616;22;20003;-89
2022/02/09 20:53:42;;;;;;;12.95;2.80;;;6.60;99.90;;;;;;6280446;22;20287;-90
2022/02/09 20:56:08;;;;;;;10.13;2.83;;;6.50;99.90;;;;;;6281402;22;20021;-91
2022/02/09 20:58:35;;;;;;;9.48;2.60;;;6.40;99.90;;;;;;6281671;22;20440;-91
2022/02/09 21:01:07;;;;;;;12.73;3.58;;;6.30;99.90;;;;;;6282656;22;19999;-91
2022/02/09 21:14:01;;;;;;;13.05;2.97;;;6.30;99.90;;;;;;6309243;22;20015;-93
2022/02/09 21:56:41;;;;;;;8.93;2.25;;;6.40;99.90;;;;;;6306929;22;20034;-90
2022/02/09 22:01:50;;;;;;;11.82;2.45;;;6.50;99.90;;;;;;6307163;22;20116;-90
2022/02/09 22:28:32;;;;;;;10.65;1.95;;;6.10;99.90;;;;;;6215201;23;20127;-88
2022/02/09 22:55:44;;;;;;;9.73;2.22;;;6.10;99.90;;;;;;6179873;23;20004;-88
2022/02/09 22:58:12;;;;;;;13.00;2.20;;;6.00;99.90;;;;;;6188640;23;20031;-88
2022/02/09 23:00:59;;;;;;;12.88;2.60;;;6.00;99.90;;;;;;6212976;23;20020;-88
2022/02/09 23:08:44;;;;;;;8.13;1.63;;;6.00;99.90;;;;;;6307461;22;20014;-89
2022/02/09 23:13:48;;;;;;;9.70;1.80;;;6.00;99.90;;;;;;6307730;22;20000;-89
2022/02/09 23:21:49;;;;;;;7.40;1.98;;;5.90;99.90;;;;;;6317611;22;20057;-90
2022/02/09 23:27:39;;;;;;;12.85;1.70;;;5.90;99.90;;;;;;6281979;22;19995;-90
2022/02/09 23:55:16;;;;;;;8.18;2.17;;;5.70;99.90;;;;;;6310718;22;20087;-91
